sensor_id;sensor_type;location;lat;lon;timestamp;P1;durP1;ratioP1;P2;durP2;ratioP2
53927;SDS011;39837;47.630;18.822;2023-04-15T00:02:43;8.43;;;7.30;;
53927;SDS011;39837;47.630;18.822;2023-04-15T00:05:28;8.02;;;6.38;;
53927;SDS011;39837;47.630;18.822;2023-04-15T00:08:13;9.50;;;7.10;;
53927;SDS011;39837;47.630;18.822;2023-04-15T00:10:58;9.35;;;7.13;;
53927;SDS011;39837;47.630;18.822;2023-04-15T00:13:45;7.05;;;6.10;;
53927;SDS011;39837;47.630;18.822;2023-04-15T00:16:29;9.73;;;7.72;;
53927;SDS011;39837;47.630;18.822;2023-04-15T00:19:13;7.70;;;6.65;;
53927;SDS011;39837;47.630;18.822;2023-04-15T00:21:57;6.80;;;6.05;;
53927;SDS011;39837;47.630;18.822;2023-04-15T00:24:41;9.45;;;7.43;;
53927;SDS011;39837;47.630;18.822;2023-04-15T00:27:25;7.68;;;6.90;;
53927;SDS011;39837;47.630;18.822;2023-04-15T00:30:09;14.82;;;8.20;;
53927;SDS011;39837;47.630;18.822;2023-04-15T00:32:54;9.93;;;7.20;;
53927;SDS011;39837;47.630;18.822;2023-04-15T00:35:38;9.38;;;6.72;;
53927;SDS011;39837;47.630;18.822;2023-04-15T00:38:23;5.82;;;5.30;;
53927;SDS011;39837;47.630;18.822;2023-04-15T00:41:07;8.95;;;6.95;;
53927;SDS011;39837;47.630;18.822;2023-04-15T00:43:51;9.88;;;6.55;;
53927;SDS011;39837;47.630;18.822;2023-04-15T00:46:35;7.70;;;5.82;;
53927;SDS011;39837;47.630;18.822;2023-04-15T00:49:20;5.35;;;4.80;;
53927;SDS011;39837;47.630;18.822;2023-04-15T00:52:05;7.72;;;6.13;;
53927;SDS011;39837;47.630;18.822;2023-04-15T00:54:49;5.70;;;5.20;;
53927;SDS011;39837;47.630;18.822;2023-04-15T00:57:34;5.10;;;4.25;;
53927;SDS011;39837;47.630;18.822;2023-04-15T01:00:19;6.05;;;5.43;;
53927;SDS011;39837;47.630;18.822;2023-04-15T01:03:04;6.05;;;5.32;;
53927;SDS011;39837;47.630;18.822;2023-04-15T01:05:49;5.93;;;5.05;;
53927;SDS011;39837;47.630;18.822;2023-04-15T01:08:34;5.03;;;4.25;;
53927;SDS011;39837;47.630;18.822;2023-04-15T01:11:18;7.05;;;5.05;;
53927;SDS011;39837;47.630;18.822;2023-04-15T01:14:03;5.50;;;4.75;;
53927;SDS011;39837;47.630;18.822;2023-04-15T01:16:48;5.95;;;4.35;;
53927;SDS011;39837;47.630;18.822;2023-04-15T01:19:32;5.07;;;4.43;;
53927;SDS011;39837;47.630;18.822;2023-04-15T01:22:16;7.53;;;4.97;;
53927;SDS011;39837;47.630;18.822;2023-04-15T01:25:02;7.38;;;4.72;;
53927;SDS011;39837;47.630;18.822;2023-04-15T01:27:50;5.80;;;5.22;;
53927;SDS011;39837;47.630;18.822;2023-04-15T01:30:34;5.45;;;4.85;;
53927;SDS011;39837;47.630;18.822;2023-04-15T01:33:19;3.88;;;3.58;;
53927;SDS011;39837;47.630;18.822;2023-04-15T01:36:03;5.10;;;4.57;;
53927;SDS011;39837;47.630;18.822;2023-04-15T01:41:33;6.65;;;4.40;;
53927;SDS011;39837;47.630;18.822;2023-04-15T01:44:17;4.20;;;3.88;;
53927;SDS011;39837;47.630;18.822;2023-04-15T01:47:01;6.53;;;5.10;;
53927;SDS011;39837;47.630;18.822;2023-04-15T01:49:46;5.55;;;4.95;;
53927;SDS011;39837;47.630;18.822;2023-04-15T01:52:30;5.28;;;4.78;;
53927;SDS011;39837;47.630;18.822;2023-04-15T01:55:14;5.95;;;5.43;;
53927;SDS011;39837;47.630;18.822;2023-04-15T01:57:59;9.23;;;5.35;;
53927;SDS011;39837;47.630;18.822;2023-04-15T02:00:43;7.32;;;5.00;;
53927;SDS011;39837;47.630;18.822;2023-04-15T02:03:28;5.50;;;5.00;;
53927;SDS011;39837;47.630;18.822;2023-04-15T02:06:12;5.65;;;4.90;;
53927;SDS011;39837;47.630;18.822;2023-04-15T02:08:56;5.15;;;4.65;;
53927;SDS011;39837;47.630;18.822;2023-04-15T02:11:41;5.65;;;5.13;;
53927;SDS011;39837;47.630;18.822;2023-04-15T02:14:25;6.93;;;4.60;;
53927;SDS011;39837;47.630;18.822;2023-04-15T02:17:09;5.18;;;4.68;;
53927;SDS011;39837;47.630;18.822;2023-04-15T02:19:54;7.05;;;4.90;;
53927;SDS011;39837;47.630;18.822;2023-04-15T02:22:39;6.28;;;4.45;;
53927;SDS011;39837;47.630;18.822;2023-04-15T02:25:23;5.90;;;5.20;;
53927;SDS011;39837;47.630;18.822;2023-04-15T02:28:07;4.43;;;3.75;;
53927;SDS011;39837;47.630;18.822;2023-04-15T02:30:51;6.45;;;4.90;;
53927;SDS011;39837;47.630;18.822;2023-04-15T02:33:37;9.85;;;6.10;;
53927;SDS011;39837;47.630;18.822;2023-04-15T02:36:21;4.50;;;4.10;;
53927;SDS011;39837;47.630;18.822;2023-04-15T02:39:06;5.13;;;4.63;;
53927;SDS011;39837;47.630;18.822;2023-04-15T02:41:50;11.77;;;4.93;;
53927;SDS011;39837;47.630;18.822;2023-04-15T02:44:35;5.88;;;5.07;;
53927;SDS011;39837;47.630;18.822;2023-04-15T02:47:19;7.60;;;6.05;;
53927;SDS011;39837;47.630;18.822;2023-04-15T02:50:04;6.30;;;5.07;;
53927;SDS011;39837;47.630;18.822;2023-04-15T02:52:49;6.13;;;5.47;;
53927;SDS011;39837;47.630;18.822;2023-04-15T02:55:34;7.05;;;5.05;;
53927;SDS011;39837;47.630;18.822;2023-04-15T02:58:18;7.07;;;5.03;;
53927;SDS011;39837;47.630;18.822;2023-04-15T03:01:02;6.15;;;4.63;;
53927;SDS011;39837;47.630;18.822;2023-04-15T03:03:46;4.55;;;4.15;;
53927;SDS011;39837;47.630;18.822;2023-04-15T03:06:30;7.45;;;6.32;;
53927;SDS011;39837;47.630;18.822;2023-04-15T03:09:14;5.47;;;4.93;;
53927;SDS011;39837;47.630;18.822;2023-04-15T03:11:58;7.72;;;5.78;;
53927;SDS011;39837;47.630;18.822;2023-04-15T03:14:42;7.32;;;5.20;;
53927;SDS011;39837;47.630;18.822;2023-04-15T03:17:26;10.23;;;5.93;;
53927;SDS011;39837;47.630;18.822;2023-04-15T03:20:10;8.98;;;5.22;;
53927;SDS011;39837;47.630;18.822;2023-04-15T03:22:55;5.60;;;4.90;;
53927;SDS011;39837;47.630;18.822;2023-04-15T03:25:39;6.85;;;5.13;;
53927;SDS011;39837;47.630;18.822;2023-04-15T03:28:23;4.63;;;4.25;;
53927;SDS011;39837;47.630;18.822;2023-04-15T03:31:07;6.28;;;5.68;;
53927;SDS011;39837;47.630;18.822;2023-04-15T03:33:51;6.50;;;5.30;;
53927;SDS011;39837;47.630;18.822;2023-04-15T03:36:35;6.22;;;5.03;;
53927;SDS011;39837;47.630;18.822;2023-04-15T03:39:20;6.07;;;5.35;;
53927;SDS011;39837;47.630;18.822;2023-04-15T03:42:04;4.95;;;4.50;;
53927;SDS011;39837;47.630;18.822;2023-04-15T03:44:48;5.57;;;4.90;;
53927;SDS011;39837;47.630;18.822;2023-04-15T03:47:32;4.38;;;4.00;;
53927;SDS011;39837;47.630;18.822;2023-04-15T03:50:16;5.07;;;4.45;;
53927;SDS011;39837;47.630;18.822;2023-04-15T03:53:00;7.38;;;4.78;;
53927;SDS011;39837;47.630;18.822;2023-04-15T03:55:44;5.55;;;4.13;;
53927;SDS011;39837;47.630;18.822;2023-04-15T03:58:29;5.28;;;4.47;;
53927;SDS011;39837;47.630;18.822;2023-04-15T04:01:13;7.43;;;4.72;;
53927;SDS011;39837;47.630;18.822;2023-04-15T04:03:58;10.02;;;5.25;;
53927;SDS011;39837;47.630;18.822;2023-04-15T04:06:42;5.75;;;5.20;;
53927;SDS011;39837;47.630;18.822;2023-04-15T04:09:26;6.07;;;5.45;;
53927;SDS011;39837;47.630;18.822;2023-04-15T04:12:10;5.75;;;5.22;;
53927;SDS011;39837;47.630;18.822;2023-04-15T04:14:54;9.85;;;6.65;;
53927;SDS011;39837;47.630;18.822;2023-04-15T04:17:38;6.30;;;5.70;;
53927;SDS011;39837;47.630;18.822;2023-04-15T04:20:23;5.05;;;4.03;;
53927;SDS011;39837;47.630;18.822;2023-04-15T04:23:07;6.60;;;4.22;;
53927;SDS011;39837;47.630;18.822;2023-04-15T04:25:51;5.85;;;5.22;;
53927;SDS011;39837;47.630;18.822;2023-04-15T04:28:36;5.40;;;4.53;;
53927;SDS011;39837;47.630;18.822;2023-04-15T04:31:21;5.85;;;4.40;;
53927;SDS011;39837;47.630;18.822;2023-04-15T04:34:05;6.28;;;4.35;;
53927;SDS011;39837;47.630;18.822;2023-04-15T04:36:50;5.88;;;5.15;;
53927;SDS011;39837;47.630;18.822;2023-04-15T04:39:34;4.70;;;4.40;;
53927;SDS011;39837;47.630;18.822;2023-04-15T04:42:18;4.28;;;3.90;;
53927;SDS011;39837;47.630;18.822;2023-04-15T04:45:03;4.65;;;4.20;;
53927;SDS011;39837;47.630;18.822;2023-04-15T04:47:47;5.70;;;5.20;;
53927;SDS011;39837;47.630;18.822;2023-04-15T04:50:31;5.97;;;4.38;;
53927;SDS011;39837;47.630;18.822;2023-04-15T04:53:16;8.43;;;4.20;;
53927;SDS011;39837;47.630;18.822;2023-04-15T04:56:00;4.10;;;3.72;;
53927;SDS011;39837;47.630;18.822;2023-04-15T04:58:44;7.30;;;6.47;;
53927;SDS011;39837;47.630;18.822;2023-04-15T05:01:29;8.80;;;5.45;;
53927;SDS011;39837;47.630;18.822;2023-04-15T05:04:13;7.45;;;4.75;;
53927;SDS011;39837;47.630;18.822;2023-04-15T05:06:58;6.80;;;5.05;;
53927;SDS011;39837;47.630;18.822;2023-04-15T05:09:42;5.85;;;5.28;;
53927;SDS011;39837;47.630;18.822;2023-04-15T05:12:26;6.88;;;5.85;;
53927;SDS011;39837;47.630;18.822;2023-04-15T05:15:10;7.75;;;6.10;;
53927;SDS011;39837;47.630;18.822;2023-04-15T05:17:55;7.68;;;4.93;;
53927;SDS011;39837;47.630;18.822;2023-04-15T05:20:39;7.95;;;5.22;;
53927;SDS011;39837;47.630;18.822;2023-04-15T05:23:23;7.55;;;5.97;;
53927;SDS011;39837;47.630;18.822;2023-04-15T05:26:07;6.63;;;5.75;;
53927;SDS011;39837;47.630;18.822;2023-04-15T05:28:51;23.17;;;5.63;;
53927;SDS011;39837;47.630;18.822;2023-04-15T05:31:35;8.15;;;6.22;;
53927;SDS011;39837;47.630;18.822;2023-04-15T05:34:20;7.75;;;5.13;;
53927;SDS011;39837;47.630;18.822;2023-04-15T05:37:04;7.30;;;6.43;;
53927;SDS011;39837;47.630;18.822;2023-04-15T05:39:48;8.45;;;5.95;;
53927;SDS011;39837;47.630;18.822;2023-04-15T05:42:32;4.72;;;4.32;;
53927;SDS011;39837;47.630;18.822;2023-04-15T05:45:17;5.00;;;4.60;;
53927;SDS011;39837;47.630;18.822;2023-04-15T05:48:01;7.60;;;5.35;;
53927;SDS011;39837;47.630;18.822;2023-04-15T05:50:45;10.77;;;5.63;;
53927;SDS011;39837;47.630;18.822;2023-04-15T05:53:29;5.32;;;4.82;;
53927;SDS011;39837;47.630;18.822;2023-04-15T05:56:13;5.93;;;5.43;;
53927;SDS011;39837;47.630;18.822;2023-04-15T05:58:58;8.02;;;6.10;;
53927;SDS011;39837;47.630;18.822;2023-04-15T06:01:42;8.60;;;5.90;;
53927;SDS011;39837;47.630;18.822;2023-04-15T06:04:26;6.63;;;5.85;;
53927;SDS011;39837;47.630;18.822;2023-04-15T06:07:10;9.15;;;5.68;;
53927;SDS011;39837;47.630;18.822;2023-04-15T06:09:54;7.50;;;6.30;;
53927;SDS011;39837;47.630;18.822;2023-04-15T06:12:38;6.75;;;5.78;;
53927;SDS011;39837;47.630;18.822;2023-04-15T06:15:22;6.07;;;4.72;;
53927;SDS011;39837;47.630;18.822;2023-04-15T06:18:06;8.25;;;4.70;;
53927;SDS011;39837;47.630;18.822;2023-04-15T06:20:50;4.80;;;4.47;;
53927;SDS011;39837;47.630;18.822;2023-04-15T06:23:34;5.53;;;5.13;;
53927;SDS011;39837;47.630;18.822;2023-04-15T06:26:19;2.03;;;2.00;;
53927;SDS011;39837;47.630;18.822;2023-04-15T06:29:03;3.95;;;3.65;;
53927;SDS011;39837;47.630;18.822;2023-04-15T06:31:47;3.72;;;2.47;;
53927;SDS011;39837;47.630;18.822;2023-04-15T06:34:32;1.50;;;1.50;;
53927;SDS011;39837;47.630;18.822;2023-04-15T06:37:16;1.85;;;1.70;;
53927;SDS011;39837;47.630;18.822;2023-04-15T06:40:00;1.88;;;1.88;;
53927;SDS011;39837;47.630;18.822;2023-04-15T06:42:44;1.75;;;1.75;;
53927;SDS011;39837;47.630;18.822;2023-04-15T06:45:28;1.80;;;1.80;;
53927;SDS011;39837;47.630;18.822;2023-04-15T06:48:12;1.90;;;1.80;;
53927;SDS011;39837;47.630;18.822;2023-04-15T06:50:56;2.33;;;2.22;;
53927;SDS011;39837;47.630;18.822;2023-04-15T06:53:41;1.38;;;1.38;;
53927;SDS011;39837;47.630;18.822;2023-04-15T06:56:26;2.03;;;2.03;;
53927;SDS011;39837;47.630;18.822;2023-04-15T06:59:10;2.38;;;2.28;;
53927;SDS011;39837;47.630;18.822;2023-04-15T07:01:56;1.43;;;1.43;;
53927;SDS011;39837;47.630;18.822;2023-04-15T07:04:40;1.45;;;1.45;;
53927;SDS011;39837;47.630;18.822;2023-04-15T07:07:24;1.00;;;1.00;;
53927;SDS011;39837;47.630;18.822;2023-04-15T07:10:09;1.23;;;1.23;;
53927;SDS011;39837;47.630;18.822;2023-04-15T07:12:55;1.50;;;1.33;;
53927;SDS011;39837;47.630;18.822;2023-04-15T07:15:39;1.02;;;1.02;;
53927;SDS011;39837;47.630;18.822;2023-04-15T07:18:23;1.35;;;1.35;;
53927;SDS011;39837;47.630;18.822;2023-04-15T07:21:08;0.88;;;0.88;;
53927;SDS011;39837;47.630;18.822;2023-04-15T07:23:52;1.52;;;1.52;;
53927;SDS011;39837;47.630;18.822;2023-04-15T07:26:36;2.38;;;2.05;;
53927;SDS011;39837;47.630;18.822;2023-04-15T07:29:20;1.05;;;1.05;;
53927;SDS011;39837;47.630;18.822;2023-04-15T07:32:04;1.08;;;1.08;;
53927;SDS011;39837;47.630;18.822;2023-04-15T07:34:49;1.08;;;1.08;;
53927;SDS011;39837;47.630;18.822;2023-04-15T07:37:33;1.75;;;1.25;;
53927;SDS011;39837;47.630;18.822;2023-04-15T07:40:17;0.80;;;0.80;;
53927;SDS011;39837;47.630;18.822;2023-04-15T07:43:01;1.52;;;1.42;;
53927;SDS011;39837;47.630;18.822;2023-04-15T07:45:46;1.40;;;1.40;;
53927;SDS011;39837;47.630;18.822;2023-04-15T07:48:30;1.20;;;1.20;;
53927;SDS011;39837;47.630;18.822;2023-04-15T07:51:14;1.00;;;1.00;;
53927;SDS011;39837;47.630;18.822;2023-04-15T07:54:00;1.33;;;1.33;;
53927;SDS011;39837;47.630;18.822;2023-04-15T07:56:44;1.50;;;1.50;;
53927;SDS011;39837;47.630;18.822;2023-04-15T07:59:28;2.47;;;2.38;;
53927;SDS011;39837;47.630;18.822;2023-04-15T08:02:13;2.30;;;2.20;;
53927;SDS011;39837;47.630;18.822;2023-04-15T08:04:58;2.47;;;2.38;;
53927;SDS011;39837;47.630;18.822;2023-04-15T08:07:42;2.13;;;2.03;;
53927;SDS011;39837;47.630;18.822;2023-04-15T08:10:26;2.47;;;2.28;;
53927;SDS011;39837;47.630;18.822;2023-04-15T08:13:11;2.28;;;2.10;;
53927;SDS011;39837;47.630;18.822;2023-04-15T08:19:15;2.40;;;2.30;;
53927;SDS011;39837;47.630;18.822;2023-04-15T08:22:00;1.90;;;1.83;;
53927;SDS011;39837;47.630;18.822;2023-04-15T08:24:44;3.72;;;2.17;;
53927;SDS011;39837;47.630;18.822;2023-04-15T08:27:28;2.33;;;2.28;;
53927;SDS011;39837;47.630;18.822;2023-04-15T08:30:12;2.75;;;2.50;;
53927;SDS011;39837;47.630;18.822;2023-04-15T08:32:56;1.90;;;1.85;;
53927;SDS011;39837;47.630;18.822;2023-04-15T08:35:40;1.60;;;1.60;;
53927;SDS011;39837;47.630;18.822;2023-04-15T08:38:24;1.60;;;1.60;;
53927;SDS011;39837;47.630;18.822;2023-04-15T08:41:28;2.10;;;2.00;;
53927;SDS011;39837;47.630;18.822;2023-04-15T08:44:22;1.50;;;1.50;;
53927;SDS011;39837;47.630;18.822;2023-04-15T08:47:07;2.10;;;1.88;;
53927;SDS011;39837;47.630;18.822;2023-04-15T08:49:51;2.28;;;2.17;;
53927;SDS011;39837;47.630;18.822;2023-04-15T08:55:21;1.70;;;1.70;;
53927;SDS011;39837;47.630;18.822;2023-04-15T08:58:06;1.90;;;1.48;;
53927;SDS011;39837;47.630;18.822;2023-04-15T09:00:50;0.90;;;0.90;;
53927;SDS011;39837;47.630;18.822;2023-04-15T09:03:34;1.10;;;1.10;;
53927;SDS011;39837;47.630;18.822;2023-04-15T09:06:19;1.10;;;1.10;;
53927;SDS011;39837;47.630;18.822;2023-04-15T09:09:04;0.97;;;0.97;;
53927;SDS011;39837;47.630;18.822;2023-04-15T09:11:48;0.80;;;0.80;;
53927;SDS011;39837;47.630;18.822;2023-04-15T09:14:33;0.90;;;0.90;;
53927;SDS011;39837;47.630;18.822;2023-04-15T09:17:18;1.00;;;1.00;;
53927;SDS011;39837;47.630;18.822;2023-04-15T09:20:08;1.00;;;1.00;;
53927;SDS011;39837;47.630;18.822;2023-04-15T09:22:52;1.13;;;1.05;;
53927;SDS011;39837;47.630;18.822;2023-04-15T09:25:36;2.10;;;1.45;;
53927;SDS011;39837;47.630;18.822;2023-04-15T09:28:23;1.42;;;1.42;;
53927;SDS011;39837;47.630;18.822;2023-04-15T09:31:10;1.10;;;1.10;;
53927;SDS011;39837;47.630;18.822;2023-04-15T09:33:54;1.27;;;1.27;;
53927;SDS011;39837;47.630;18.822;2023-04-15T09:39:49;1.50;;;1.40;;
53927;SDS011;39837;47.630;18.822;2023-04-15T09:42:35;1.40;;;1.40;;
53927;SDS011;39837;47.630;18.822;2023-04-15T09:45:20;3.15;;;1.75;;
53927;SDS011;39837;47.630;18.822;2023-04-15T09:48:24;2.08;;;2.08;;
53927;SDS011;39837;47.630;18.822;2023-04-15T09:51:13;1.63;;;1.63;;
53927;SDS011;39837;47.630;18.822;2023-04-15T09:53:58;2.10;;;2.00;;
53927;SDS011;39837;47.630;18.822;2023-04-15T09:56:41;1.40;;;1.40;;
53927;SDS011;39837;47.630;18.822;2023-04-15T09:59:25;1.75;;;1.75;;
53927;SDS011;39837;47.630;18.822;2023-04-15T10:02:11;1.55;;;1.55;;
53927;SDS011;39837;47.630;18.822;2023-04-15T10:04:56;1.80;;;1.80;;
53927;SDS011;39837;47.630;18.822;2023-04-15T10:07:41;1.08;;;1.08;;
53927;SDS011;39837;47.630;18.822;2023-04-15T10:10:25;1.63;;;1.63;;
53927;SDS011;39837;47.630;18.822;2023-04-15T10:13:09;1.48;;;1.48;;
53927;SDS011;39837;47.630;18.822;2023-04-15T10:19:00;1.40;;;1.40;;
53927;SDS011;39837;47.630;18.822;2023-04-15T10:21:44;1.50;;;1.40;;
53927;SDS011;39837;47.630;18.822;2023-04-15T10:24:32;1.58;;;1.58;;
53927;SDS011;39837;47.630;18.822;2023-04-15T10:27:16;1.48;;;1.40;;
53927;SDS011;39837;47.630;18.822;2023-04-15T10:30:01;1.70;;;1.60;;
53927;SDS011;39837;47.630;18.822;2023-04-15T10:32:46;1.20;;;1.20;;
53927;SDS011;39837;47.630;18.822;2023-04-15T10:35:31;1.85;;;1.50;;
53927;SDS011;39837;47.630;18.822;2023-04-15T10:41:21;1.08;;;1.08;;
53927;SDS011;39837;47.630;18.822;2023-04-15T10:46:50;1.27;;;1.27;;
53927;SDS011;39837;47.630;18.822;2023-04-15T10:49:34;1.05;;;1.05;;
53927;SDS011;39837;47.630;18.822;2023-04-15T10:52:27;1.38;;;1.38;;
53927;SDS011;39837;47.630;18.822;2023-04-15T10:57:58;0.93;;;0.93;;
53927;SDS011;39837;47.630;18.822;2023-04-15T11:00:48;1.05;;;1.05;;
53927;SDS011;39837;47.630;18.822;2023-04-15T11:03:36;1.52;;;1.52;;
53927;SDS011;39837;47.630;18.822;2023-04-15T11:06:33;1.35;;;1.35;;
53927;SDS011;39837;47.630;18.822;2023-04-15T11:09:30;1.20;;;1.20;;
53927;SDS011;39837;47.630;18.822;2023-04-15T11:12:16;1.30;;;1.30;;
53927;SDS011;39837;47.630;18.822;2023-04-15T11:18:08;1.10;;;1.10;;
53927;SDS011;39837;47.630;18.822;2023-04-15T11:20:58;1.58;;;1.58;;
53927;SDS011;39837;47.630;18.822;2023-04-15T11:23:43;2.78;;;1.30;;
53927;SDS011;39837;47.630;18.822;2023-04-15T11:26:29;1.38;;;1.38;;
53927;SDS011;39837;47.630;18.822;2023-04-15T11:29:16;1.02;;;1.02;;
53927;SDS011;39837;47.630;18.822;2023-04-15T11:32:03;1.13;;;1.13;;
53927;SDS011;39837;47.630;18.822;2023-04-15T11:34:50;1.20;;;1.20;;
53927;SDS011;39837;47.630;18.822;2023-04-15T11:37:34;1.42;;;1.42;;
53927;SDS011;39837;47.630;18.822;2023-04-15T11:40:22;1.27;;;1.27;;
53927;SDS011;39837;47.630;18.822;2023-04-15T11:43:08;1.10;;;1.10;;
53927;SDS011;39837;47.630;18.822;2023-04-15T11:46:05;1.23;;;1.23;;
53927;SDS011;39837;47.630;18.822;2023-04-15T11:48:49;0.93;;;0.93;;
53927;SDS011;39837;47.630;18.822;2023-04-15T11:51:33;1.08;;;1.08;;
53927;SDS011;39837;47.630;18.822;2023-04-15T11:54:17;1.27;;;1.27;;
53927;SDS011;39837;47.630;18.822;2023-04-15T11:57:02;1.20;;;1.20;;
53927;SDS011;39837;47.630;18.822;2023-04-15T11:59:45;1.00;;;1.00;;
53927;SDS011;39837;47.630;18.822;2023-04-15T12:02:30;1.00;;;1.00;;
53927;SDS011;39837;47.630;18.822;2023-04-15T12:05:15;0.93;;;0.93;;
53927;SDS011;39837;47.630;18.822;2023-04-15T12:07:59;1.50;;;1.50;;
53927;SDS011;39837;47.630;18.822;2023-04-15T12:10:44;1.00;;;1.00;;
53927;SDS011;39837;47.630;18.822;2023-04-15T12:13:28;1.25;;;1.25;;
53927;SDS011;39837;47.630;18.822;2023-04-15T12:16:16;1.02;;;1.02;;
53927;SDS011;39837;47.630;18.822;2023-04-15T12:19:04;1.42;;;1.42;;
53927;SDS011;39837;47.630;18.822;2023-04-15T12:22:03;5.57;;;1.20;;
53927;SDS011;39837;47.630;18.822;2023-04-15T12:24:53;1.05;;;1.05;;
53927;SDS011;39837;47.630;18.822;2023-04-15T12:27:39;0.90;;;0.90;;
53927;SDS011;39837;47.630;18.822;2023-04-15T12:30:24;1.05;;;1.05;;
53927;SDS011;39837;47.630;18.822;2023-04-15T12:33:07;0.90;;;0.90;;
53927;SDS011;39837;47.630;18.822;2023-04-15T12:35:52;0.90;;;0.90;;
53927;SDS011;39837;47.630;18.822;2023-04-15T12:38:36;1.25;;;1.25;;
53927;SDS011;39837;47.630;18.822;2023-04-15T12:41:21;1.20;;;1.20;;
53927;SDS011;39837;47.630;18.822;2023-04-15T12:44:07;1.00;;;1.00;;
53927;SDS011;39837;47.630;18.822;2023-04-15T12:46:51;1.00;;;1.00;;
53927;SDS011;39837;47.630;18.822;2023-04-15T12:49:36;1.20;;;1.20;;
53927;SDS011;39837;47.630;18.822;2023-04-15T12:52:20;1.38;;;1.38;;
53927;SDS011;39837;47.630;18.822;2023-04-15T12:55:07;1.70;;;1.70;;
53927;SDS011;39837;47.630;18.822;2023-04-15T12:57:51;1.33;;;1.33;;
53927;SDS011;39837;47.630;18.822;2023-04-15T13:00:35;1.48;;;1.40;;
53927;SDS011;39837;47.630;18.822;2023-04-15T13:03:19;1.02;;;1.02;;
53927;SDS011;39837;47.630;18.822;2023-04-15T13:06:03;1.33;;;1.33;;
53927;SDS011;39837;47.630;18.822;2023-04-15T13:08:47;1.13;;;1.13;;
53927;SDS011;39837;47.630;18.822;2023-04-15T13:11:32;1.40;;;1.40;;
53927;SDS011;39837;47.630;18.822;2023-04-15T13:14:17;0.90;;;0.90;;
53927;SDS011;39837;47.630;18.822;2023-04-15T13:17:01;1.27;;;1.27;;
53927;SDS011;39837;47.630;18.822;2023-04-15T13:19:47;1.05;;;1.05;;
53927;SDS011;39837;47.630;18.822;2023-04-15T13:22:31;1.40;;;1.40;;
53927;SDS011;39837;47.630;18.822;2023-04-15T13:25:15;1.40;;;1.40;;
53927;SDS011;39837;47.630;18.822;2023-04-15T13:27:59;1.75;;;1.38;;
53927;SDS011;39837;47.630;18.822;2023-04-15T13:30:44;1.17;;;1.17;;
53927;SDS011;39837;47.630;18.822;2023-04-15T13:33:28;1.52;;;1.52;;
53927;SDS011;39837;47.630;18.822;2023-04-15T13:36:13;1.45;;;1.42;;
53927;SDS011;39837;47.630;18.822;2023-04-15T13:38:57;1.75;;;1.75;;
53927;SDS011;39837;47.630;18.822;2023-04-15T13:41:42;1.45;;;1.45;;
53927;SDS011;39837;47.630;18.822;2023-04-15T13:44:26;4.57;;;1.25;;
53927;SDS011;39837;47.630;18.822;2023-04-15T13:47:10;1.48;;;1.48;;
53927;SDS011;39837;47.630;18.822;2023-04-15T13:49:55;1.38;;;1.30;;
53927;SDS011;39837;47.630;18.822;2023-04-15T13:52:40;1.10;;;1.10;;
53927;SDS011;39837;47.630;18.822;2023-04-15T13:55:24;1.05;;;1.02;;
53927;SDS011;39837;47.630;18.822;2023-04-15T13:58:08;1.17;;;1.17;;
53927;SDS011;39837;47.630;18.822;2023-04-15T14:00:52;1.45;;;1.33;;
53927;SDS011;39837;47.630;18.822;2023-04-15T14:03:36;1.20;;;1.20;;
53927;SDS011;39837;47.630;18.822;2023-04-15T14:06:21;1.05;;;1.05;;
53927;SDS011;39837;47.630;18.822;2023-04-15T14:09:05;3.60;;;1.00;;
53927;SDS011;39837;47.630;18.822;2023-04-15T14:11:50;1.02;;;1.02;;
53927;SDS011;39837;47.630;18.822;2023-04-15T14:14:34;1.52;;;1.42;;
53927;SDS011;39837;47.630;18.822;2023-04-15T14:17:18;2.50;;;1.55;;
53927;SDS011;39837;47.630;18.822;2023-04-15T14:20:03;1.48;;;1.48;;
53927;SDS011;39837;47.630;18.822;2023-04-15T14:22:50;1.50;;;1.50;;
53927;SDS011;39837;47.630;18.822;2023-04-15T14:25:34;1.13;;;1.13;;
53927;SDS011;39837;47.630;18.822;2023-04-15T14:28:19;1.10;;;1.10;;
53927;SDS011;39837;47.630;18.822;2023-04-15T14:31:03;1.45;;;1.40;;
53927;SDS011;39837;47.630;18.822;2023-04-15T14:33:47;1.17;;;1.17;;
53927;SDS011;39837;47.630;18.822;2023-04-15T14:36:31;1.13;;;1.13;;
53927;SDS011;39837;47.630;18.822;2023-04-15T14:39:16;0.90;;;0.90;;
53927;SDS011;39837;47.630;18.822;2023-04-15T14:42:00;1.13;;;1.13;;
53927;SDS011;39837;47.630;18.822;2023-04-15T14:44:44;1.17;;;1.17;;
53927;SDS011;39837;47.630;18.822;2023-04-15T14:47:29;1.35;;;1.25;;
53927;SDS011;39837;47.630;18.822;2023-04-15T14:50:14;1.20;;;1.20;;
53927;SDS011;39837;47.630;18.822;2023-04-15T14:52:58;1.00;;;1.00;;
53927;SDS011;39837;47.630;18.822;2023-04-15T14:55:43;2.00;;;1.60;;
53927;SDS011;39837;47.630;18.822;2023-04-15T14:58:28;1.10;;;1.10;;
53927;SDS011;39837;47.630;18.822;2023-04-15T15:01:13;1.25;;;1.15;;
53927;SDS011;39837;47.630;18.822;2023-04-15T15:03:57;1.20;;;1.20;;
53927;SDS011;39837;47.630;18.822;2023-04-15T15:06:41;0.80;;;0.80;;
53927;SDS011;39837;47.630;18.822;2023-04-15T15:09:25;1.30;;;1.20;;
53927;SDS011;39837;47.630;18.822;2023-04-15T15:12:10;1.02;;;1.02;;
53927;SDS011;39837;47.630;18.822;2023-04-15T15:14:54;1.17;;;1.17;;
53927;SDS011;39837;47.630;18.822;2023-04-15T15:17:38;1.35;;;1.35;;
53927;SDS011;39837;47.630;18.822;2023-04-15T15:20:23;1.48;;;1.48;;
53927;SDS011;39837;47.630;18.822;2023-04-15T15:23:07;1.67;;;1.65;;
53927;SDS011;39837;47.630;18.822;2023-04-15T15:25:51;1.25;;;1.25;;
53927;SDS011;39837;47.630;18.822;2023-04-15T15:28:35;1.55;;;1.45;;
53927;SDS011;39837;47.630;18.822;2023-04-15T15:31:19;1.77;;;1.77;;
53927;SDS011;39837;47.630;18.822;2023-04-15T15:34:03;2.10;;;2.00;;
53927;SDS011;39837;47.630;18.822;2023-04-15T15:36:47;1.17;;;1.17;;
53927;SDS011;39837;47.630;18.822;2023-04-15T15:39:31;1.60;;;1.60;;
53927;SDS011;39837;47.630;18.822;2023-04-15T15:42:17;4.00;;;3.42;;
53927;SDS011;39837;47.630;18.822;2023-04-15T15:47:47;10.35;;;7.15;;
53927;SDS011;39837;47.630;18.822;2023-04-15T15:50:30;5.40;;;4.93;;
53927;SDS011;39837;47.630;18.822;2023-04-15T15:53:15;8.40;;;5.80;;
53927;SDS011;39837;47.630;18.822;2023-04-15T15:56:03;5.32;;;4.72;;
53927;SDS011;39837;47.630;18.822;2023-04-15T15:58:47;6.38;;;4.60;;
53927;SDS011;39837;47.630;18.822;2023-04-15T16:01:31;9.40;;;6.35;;
53927;SDS011;39837;47.630;18.822;2023-04-15T16:04:15;10.32;;;5.63;;
53927;SDS011;39837;47.630;18.822;2023-04-15T16:06:59;11.65;;;7.90;;
53927;SDS011;39837;47.630;18.822;2023-04-15T16:09:44;17.33;;;7.50;;
53927;SDS011;39837;47.630;18.822;2023-04-15T16:12:28;15.05;;;8.02;;
53927;SDS011;39837;47.630;18.822;2023-04-15T16:15:13;5.85;;;5.32;;
53927;SDS011;39837;47.630;18.822;2023-04-15T16:17:57;6.47;;;4.32;;
53927;SDS011;39837;47.630;18.822;2023-04-15T16:20:41;6.50;;;4.55;;
53927;SDS011;39837;47.630;18.822;2023-04-15T16:23:25;5.80;;;4.18;;
53927;SDS011;39837;47.630;18.822;2023-04-15T16:26:10;3.92;;;3.53;;
53927;SDS011;39837;47.630;18.822;2023-04-15T16:28:54;6.90;;;5.53;;
53927;SDS011;39837;47.630;18.822;2023-04-15T16:31:39;6.93;;;5.43;;
53927;SDS011;39837;47.630;18.822;2023-04-15T16:34:23;6.53;;;5.18;;
53927;SDS011;39837;47.630;18.822;2023-04-15T16:37:07;7.07;;;5.47;;
53927;SDS011;39837;47.630;18.822;2023-04-15T16:39:51;4.30;;;4.00;;
53927;SDS011;39837;47.630;18.822;2023-04-15T16:42:36;5.85;;;4.30;;
53927;SDS011;39837;47.630;18.822;2023-04-15T16:45:20;4.85;;;3.80;;
53927;SDS011;39837;47.630;18.822;2023-04-15T16:48:05;3.45;;;3.20;;